createdAt,value
2019-05-25T00:00:09.222Z,99.99
2019-05-25T00:01:09.236Z,99.99
2019-05-25T00:02:09.218Z,99.99
2019-05-25T00:03:09.490Z,99.99
2019-05-25T00:04:09.212Z,99.99
2019-05-25T00:05:09.174Z,99.99
2019-05-25T00:06:09.198Z,99.99
2019-05-25T00:07:09.225Z,99.99
2019-05-25T00:08:09.263Z,99.99
2019-05-25T00:09:09.279Z,99.99
2019-05-25T00:10:09.265Z,99.99
2019-05-25T00:11:09.239Z,99.99
2019-05-25T00:12:09.302Z,99.99
2019-05-25T00:13:25.704Z,99.99
2019-05-25T00:14:25.347Z,99.99
2019-05-25T00:15:25.323Z,99.99
2019-05-25T00:23:30.884Z,99.99
2019-05-25T00:24:30.840Z,99.99
2019-05-25T00:25:30.835Z,99.99
2019-05-25T00:26:30.835Z,99.99
2019-05-25T00:27:30.827Z,99.99
2019-05-25T00:28:31.174Z,99.99
2019-05-25T00:29:30.800Z,99.99
2019-05-25T00:30:30.826Z,99.99
2019-05-25T00:31:30.855Z,99.99
2019-05-25T00:32:30.812Z,99.99
2019-05-25T00:33:30.878Z,99.99
2019-05-25T00:34:30.853Z,99.99
2019-05-25T00:35:30.836Z,99.99
2019-05-25T00:36:30.845Z,99.99
2019-05-25T00:37:30.871Z,99.99
2019-05-25T00:38:30.838Z,99.99
2019-05-25T00:39:30.825Z,99.99
2019-05-25T00:40:30.873Z,99.99
2019-05-25T00:41:30.861Z,99.99
2019-05-25T00:42:30.868Z,99.99
2019-05-25T00:43:30.831Z,99.99
2019-05-25T00:44:30.831Z,99.99
2019-05-25T00:45:30.991Z,99.99
2019-05-25T00:46:30.849Z,99.99
2019-05-25T00:47:30.836Z,99.99
2019-05-25T00:48:30.859Z,99.99
2019-05-25T00:49:30.843Z,99.99
2019-05-25T00:50:30.861Z,99.99
2019-05-25T00:51:30.858Z,99.99
2019-05-25T00:52:30.888Z,99.99
2019-05-25T00:53:30.964Z,99.99
2019-05-25T00:54:31.147Z,99.99
2019-05-25T00:55:30.842Z,99.99
2019-05-25T00:56:30.889Z,99.99
2019-05-25T00:57:30.904Z,99.99
2019-05-25T00:58:30.901Z,99.99
2019-05-25T00:59:30.870Z,99.99
2019-05-25T01:00:30.878Z,99.99
2019-05-25T01:01:30.883Z,99.99
2019-05-25T01:02:30.887Z,99.99
2019-05-25T01:03:30.857Z,99.99
2019-05-25T01:04:30.907Z,99.99
2019-05-25T01:05:30.892Z,99.99
2019-05-25T01:06:30.896Z,99.99
2019-05-25T01:07:30.901Z,99.99
2019-05-25T01:08:30.935Z,99.99
2019-05-25T01:09:30.876Z,99.99
2019-05-25T01:10:30.899Z,99.99
2019-05-25T01:11:30.949Z,99.99
2019-05-25T01:12:30.938Z,99.99
2019-05-25T01:13:30.938Z,99.99
2019-05-25T01:14:30.955Z,99.99
2019-05-25T01:15:30.915Z,99.99
2019-05-25T01:16:30.897Z,99.99
2019-05-25T01:17:30.890Z,99.99
2019-05-25T01:18:30.908Z,99.99
2019-05-25T01:19:30.905Z,99.99
2019-05-25T01:20:31.004Z,99.99
2019-05-25T01:21:30.889Z,99.99
2019-05-25T01:22:30.897Z,99.99
2019-05-25T01:23:30.956Z,99.99
2019-05-25T01:24:46.622Z,99.99
2019-05-25T01:25:31.211Z,99.99
2019-05-25T01:26:30.907Z,99.99
2019-05-25T01:27:30.962Z,99.99
2019-05-25T01:28:30.959Z,99.99
2019-05-25T01:29:30.926Z,99.99
2019-05-25T01:30:30.957Z,99.99
2019-05-25T01:31:30.948Z,99.99
2019-05-25T01:32:30.934Z,99.99
2019-05-25T01:33:31.053Z,99.99
2019-05-25T01:34:30.915Z,99.99
2019-05-25T01:35:31.008Z,99.99
2019-05-25T01:36:30.910Z,99.99
2019-05-25T01:37:30.918Z,99.99
2019-05-25T01:38:30.925Z,99.99
2019-05-25T01:39:30.973Z,99.99
2019-05-25T01:40:30.963Z,99.99
2019-05-25T01:41:30.967Z,99.99
2019-05-25T01:42:31.067Z,99.99
2019-05-25T01:43:30.955Z,99.99
2019-05-25T01:44:30.963Z,99.99
2019-05-25T01:45:31.011Z,99.99
2019-05-25T01:46:30.978Z,99.99
2019-05-25T01:47:30.961Z,99.99
2019-05-25T01:48:30.989Z,99.99
2019-05-25T01:49:30.939Z,99.99
2019-05-25T01:50:30.941Z,99.99
2019-05-25T01:51:30.925Z,99.99
2019-05-25T01:52:30.975Z,99.99
2019-05-25T01:53:34.610Z,99.99
2019-05-25T01:54:30.973Z,99.99
2019-05-25T01:55:30.941Z,99.99
2019-05-25T01:56:30.984Z,99.99
2019-05-25T01:57:30.997Z,99.99
2019-05-25T01:58:30.990Z,99.99
2019-05-25T01:59:30.984Z,99.99
2019-05-25T02:00:30.992Z,99.99
2019-05-25T02:01:31.044Z,99.99
2019-05-25T02:02:30.967Z,99.99
2019-05-25T02:03:30.972Z,99.99
2019-05-25T02:04:31.002Z,99.99
2019-05-25T02:05:30.985Z,99.99
2019-05-25T02:06:31.090Z,99.99
2019-05-25T02:07:30.976Z,99.99
2019-05-25T02:08:31.003Z,99.99
2019-05-25T02:09:30.974Z,99.99
2019-05-25T02:10:31.348Z,99.99
2019-05-25T02:11:30.961Z,99.99
2019-05-25T02:12:31.011Z,99.99
2019-05-25T02:13:31.007Z,99.99
2019-05-25T02:14:31.004Z,99.99
2019-05-25T02:18:58.859Z,99.99
2019-05-25T02:19:58.886Z,99.99
2019-05-25T02:20:58.812Z,99.99
2019-05-25T02:21:58.820Z,99.99
2019-05-25T02:22:58.932Z,99.99
2019-05-25T02:23:58.925Z,99.99
2019-05-25T02:25:14.372Z,99.99
2019-05-25T02:25:58.850Z,99.99
2019-05-25T02:26:58.821Z,99.99
2019-05-25T02:27:58.806Z,99.99
2019-05-25T02:28:58.825Z,99.99
2019-05-25T02:29:58.835Z,99.99
2019-05-25T02:30:58.819Z,99.99
2019-05-25T02:31:58.844Z,99.99
2019-05-25T02:32:58.892Z,99.99
2019-05-25T02:33:58.909Z,99.99
2019-05-25T02:34:58.918Z,99.99
2019-05-25T02:35:58.817Z,99.99
2019-05-25T02:36:58.819Z,99.99
2019-05-25T02:37:58.806Z,99.99
2019-05-25T02:38:58.845Z,99.99
2019-05-25T02:39:58.845Z,99.99
2019-05-25T02:40:58.830Z,99.99
2019-05-25T02:41:58.809Z,99.99
2019-05-25T02:42:58.861Z,99.99
2019-05-25T02:43:58.868Z,99.99
2019-05-25T02:44:58.816Z,99.99
2019-05-25T02:45:58.836Z,99.99
2019-05-25T02:46:58.883Z,99.99
2019-05-25T02:47:58.848Z,99.99
2019-05-25T02:48:58.879Z,99.99
2019-05-25T02:49:58.850Z,99.99
2019-05-25T02:50:58.851Z,99.99
2019-05-25T02:51:58.855Z,99.99
2019-05-25T02:52:58.869Z,99.99
2019-05-25T02:53:58.844Z,99.99
2019-05-25T02:54:59.116Z,99.99
2019-05-25T02:55:58.858Z,99.99
2019-05-25T02:56:58.885Z,99.99
2019-05-25T02:59:17.379Z,99.99
2019-05-25T03:00:17.353Z,99.99
2019-05-25T03:01:17.340Z,99.99
2019-05-25T03:02:17.313Z,99.99
2019-05-25T03:03:17.396Z,99.99
2019-05-25T03:04:17.322Z,99.99
2019-05-25T03:05:17.328Z,99.99
2019-05-25T03:06:17.423Z,99.99
2019-05-25T03:07:17.346Z,99.99
2019-05-25T03:08:17.371Z,99.99
2019-05-25T03:09:17.359Z,99.99
2019-05-25T03:10:17.340Z,99.99
2019-05-25T03:11:17.348Z,99.99
2019-05-25T03:12:17.331Z,99.99
2019-05-25T03:13:17.370Z,99.99
2019-05-25T03:14:17.347Z,99.99
2019-05-25T03:15:17.377Z,99.99
2019-05-25T03:16:17.382Z,99.99
2019-05-25T03:17:17.387Z,99.99
2019-05-25T03:18:17.332Z,99.99
2019-05-25T03:19:17.357Z,99.99
2019-05-25T03:20:17.366Z,99.99
2019-05-25T03:21:17.358Z,99.99
2019-05-25T03:22:17.340Z,99.99
2019-05-25T03:23:17.408Z,99.99
2019-05-25T03:24:17.352Z,99.99
2019-05-25T03:25:17.357Z,99.99
2019-05-25T03:26:17.385Z,99.99
2019-05-25T03:27:17.391Z,99.99
2019-05-25T03:28:17.377Z,99.99
2019-05-25T03:29:17.402Z,99.99
2019-05-25T03:30:17.523Z,99.99
2019-05-25T03:31:17.396Z,99.99
2019-05-25T03:32:17.390Z,99.99
2019-05-25T03:33:17.390Z,99.99
2019-05-25T03:34:17.439Z,99.99
2019-05-25T03:35:17.385Z,99.99
2019-05-25T03:36:17.413Z,99.99
2019-05-25T03:37:17.544Z,99.99
2019-05-25T03:38:17.379Z,99.99
2019-05-25T03:39:17.391Z,99.99
2019-05-25T03:40:17.374Z,99.99
2019-05-25T03:41:17.428Z,99.99
2019-05-25T03:42:17.413Z,99.99
2019-05-25T03:43:17.427Z,99.99
2019-05-25T03:44:17.404Z,99.99
2019-05-25T03:45:17.390Z,99.99
2019-05-25T03:46:18.171Z,99.99
2019-05-25T03:47:17.386Z,99.99
2019-05-25T03:48:17.415Z,99.99
2019-05-25T03:49:17.436Z,99.99
2019-05-25T03:50:17.399Z,99.99
2019-05-25T03:51:17.447Z,99.99
2019-05-25T03:52:17.415Z,99.99
2019-05-25T03:53:17.440Z,99.99
2019-05-25T03:54:17.419Z,99.99
2019-05-25T03:55:17.424Z,99.99
2019-05-25T03:56:17.453Z,99.99
2019-05-25T03:57:17.445Z,99.99
2019-05-25T03:58:17.406Z,99.99
2019-05-25T03:59:17.582Z,99.99
2019-05-25T04:00:17.442Z,99.99
2019-05-25T04:01:17.442Z,99.99
2019-05-25T04:02:17.559Z,99.99
2019-05-25T04:03:17.461Z,99.99
2019-05-25T04:04:17.450Z,99.99
2019-05-25T04:05:17.476Z,99.99
2019-05-25T04:06:17.454Z,99.99
2019-05-25T04:07:17.445Z,99.99
2019-05-25T04:08:17.467Z,99.99
2019-05-25T04:09:17.414Z,99.99
2019-05-25T04:10:17.464Z,99.99
2019-05-25T04:11:17.458Z,99.99
2019-05-25T04:12:17.433Z,99.99
2019-05-25T04:13:17.445Z,99.99
2019-05-25T04:14:17.470Z,99.99
2019-05-25T04:15:17.459Z,99.99
2019-05-25T04:16:17.465Z,99.99
2019-05-25T04:17:17.509Z,99.99
2019-05-25T04:18:17.473Z,99.99
2019-05-25T04:19:17.459Z,99.99
2019-05-25T04:20:17.474Z,99.99
2019-05-25T04:21:17.450Z,99.99
2019-05-25T04:22:17.437Z,99.99
2019-05-25T04:23:17.792Z,99.99
2019-05-25T04:24:17.486Z,99.99
2019-05-25T04:25:17.487Z,99.99
2019-05-25T04:26:27.501Z,99.99
2019-05-25T04:27:17.526Z,99.99
2019-05-25T04:28:17.470Z,99.99
2019-05-25T04:29:17.483Z,99.99
2019-05-25T04:30:17.481Z,99.99
2019-05-25T04:31:17.508Z,99.99
2019-05-25T04:32:17.470Z,99.99
2019-05-25T04:33:17.502Z,99.99
2019-05-25T04:34:17.468Z,99.99
2019-05-25T04:35:17.495Z,99.99
2019-05-25T04:36:17.485Z,99.99
2019-05-25T04:37:19.826Z,99.99
2019-05-25T04:38:20.010Z,99.99
2019-05-25T04:39:20.026Z,99.99
2019-05-25T04:40:17.485Z,99.99
2019-05-25T04:41:17.534Z,99.99
2019-05-25T04:42:17.542Z,99.99
2019-05-25T04:43:17.482Z,99.99
2019-05-25T04:44:17.496Z,99.99
2019-05-25T04:45:17.517Z,99.99
2019-05-25T04:46:17.508Z,99.99
2019-05-25T04:47:29.923Z,99.99
2019-05-25T04:48:17.494Z,99.99
2019-05-25T04:49:17.532Z,99.99
2019-05-25T04:50:17.495Z,99.99
2019-05-25T04:53:25.081Z,99.99
2019-05-25T04:53:36.095Z,99.99
2019-05-25T04:54:36.104Z,99.99
2019-05-25T04:55:36.059Z,99.99
2019-05-25T04:56:42.137Z,99.99
2019-05-25T04:57:36.097Z,99.99
2019-05-25T04:58:36.110Z,99.99
2019-05-25T04:59:36.068Z,99.99
2019-05-25T05:00:36.138Z,99.99
2019-05-25T05:01:36.123Z,99.99
2019-05-25T05:02:36.112Z,99.99
2019-05-25T05:03:36.093Z,99.99
2019-05-25T05:04:36.121Z,99.99
2019-05-25T05:05:36.085Z,99.99
2019-05-25T05:06:36.116Z,99.99
2019-05-25T05:07:36.103Z,99.99
2019-05-25T05:08:38.321Z,99.99
2019-05-25T05:13:52.511Z,99.99
2019-05-25T05:14:03.541Z,99.99
2019-05-25T05:15:03.564Z,99.99
2019-05-25T05:16:03.514Z,99.99
2019-05-25T05:17:03.567Z,99.99
2019-05-25T05:18:03.533Z,99.99
2019-05-25T05:19:03.549Z,99.99
2019-05-25T05:20:03.565Z,99.99
2019-05-25T05:21:03.527Z,99.99
2019-05-25T05:22:05.751Z,99.99
2019-05-25T05:23:03.535Z,99.99
2019-05-25T05:24:03.682Z,99.99
2019-05-25T05:25:03.546Z,99.99
2019-05-25T05:26:03.527Z,99.99
2019-05-25T05:27:03.539Z,99.99
2019-05-25T05:28:03.521Z,99.99
2019-05-25T05:29:03.595Z,99.99
2019-05-25T05:30:03.598Z,99.99
2019-05-25T05:31:03.564Z,99.99
2019-05-25T05:32:03.550Z,99.99
2019-05-25T05:33:03.534Z,99.99
2019-05-25T05:34:03.562Z,99.99
2019-05-25T05:35:03.702Z,99.99
2019-05-25T05:36:03.576Z,99.99
2019-05-25T05:37:03.559Z,99.99
2019-05-25T05:38:03.567Z,99.99
2019-05-25T05:39:03.557Z,99.99
2019-05-25T05:40:03.543Z,99.99
2019-05-25T05:41:03.569Z,99.99
2019-05-25T05:42:03.574Z,99.99
2019-05-25T05:43:03.561Z,99.99
2019-05-25T05:44:03.586Z,99.99
2019-05-25T05:45:03.764Z,99.99
2019-05-25T05:46:03.585Z,99.99
2019-05-25T05:47:03.606Z,99.99
2019-05-25T05:48:03.573Z,99.99
2019-05-25T05:49:03.992Z,99.99
2019-05-25T05:50:03.607Z,99.99
2019-05-25T05:51:03.598Z,99.99
2019-05-25T05:52:03.600Z,99.99
2019-05-25T05:53:03.607Z,99.99
2019-05-25T05:54:03.655Z,99.99
2019-05-25T05:55:03.775Z,99.99
2019-05-25T05:56:03.600Z,99.99
2019-05-25T05:57:15.034Z,99.99
2019-05-25T05:58:03.589Z,99.99
2019-05-25T05:59:03.596Z,99.99
2019-05-25T06:00:03.606Z,99.99
2019-05-25T06:01:03.590Z,99.99
2019-05-25T06:02:03.664Z,99.99
2019-05-25T06:03:03.624Z,99.99
2019-05-25T06:04:03.592Z,99.99
2019-05-25T06:05:03.738Z,99.99
2019-05-25T06:06:03.664Z,99.99
2019-05-25T06:07:03.614Z,99.99
2019-05-25T06:08:03.599Z,99.99
2019-05-25T06:09:03.629Z,99.99
2019-05-25T06:10:03.610Z,99.99
2019-05-25T06:11:03.614Z,99.99
2019-05-25T06:12:03.627Z,99.99
2019-05-25T06:13:03.587Z,99.99
2019-05-25T06:14:03.594Z,99.99
2019-05-25T06:15:03.645Z,99.99
2019-05-25T06:16:03.831Z,99.99
2019-05-25T06:17:03.617Z,99.96
2019-05-25T06:18:06.856Z,99.99
2019-05-25T06:19:03.629Z,99.68
2019-05-25T06:20:03.612Z,99.58
2019-05-25T06:21:03.620Z,98.72
2019-05-25T06:22:03.682Z,98.24
2019-05-25T06:23:07.342Z,98.14
2019-05-25T06:24:03.969Z,98.81
2019-05-25T06:25:03.670Z,97.18
2019-05-25T06:26:03.672Z,97.18
2019-05-25T06:27:03.622Z,97.23
2019-05-25T06:28:03.626Z,96.27
2019-05-25T06:29:03.774Z,96.27
2019-05-25T06:30:03.644Z,96.42
2019-05-25T06:31:03.715Z,95.75
2019-05-25T06:32:03.669Z,94.59
2019-05-25T06:33:03.703Z,94.54
2019-05-25T06:34:03.703Z,94.16
2019-05-25T06:35:03.690Z,93.87
2019-05-25T06:36:03.683Z,93.05
2019-05-25T06:37:03.664Z,92.67
2019-05-25T06:38:03.675Z,92.1
2019-05-25T06:39:03.662Z,90.84
2019-05-25T06:40:03.664Z,90.51
2019-05-25T06:41:03.651Z,90.6
2019-05-25T06:42:03.679Z,91.56
2019-05-25T06:43:03.685Z,90.51
2019-05-25T06:44:03.711Z,90.55
2019-05-25T06:45:03.699Z,90.84
2019-05-25T06:46:03.680Z,90.79
2019-05-25T06:47:03.686Z,90.45
2019-05-25T06:48:03.660Z,90.7
2019-05-25T06:49:03.685Z,90.55
2019-05-25T06:50:03.770Z,90.22
2019-05-25T06:51:03.697Z,90.31
2019-05-25T06:52:03.682Z,90.65
2019-05-25T06:53:03.693Z,90.75
2019-05-25T06:54:12.177Z,91.42
2019-05-25T06:55:03.746Z,90.45
2019-05-25T06:56:03.695Z,90.69
2019-05-25T06:57:03.734Z,89.98
2019-05-25T06:58:03.912Z,89.88
2019-05-25T06:59:03.708Z,89.78
2019-05-25T07:00:03.722Z,89.15
2019-05-25T07:01:03.784Z,89.06
2019-05-25T07:02:03.836Z,88.77
2019-05-25T07:03:03.694Z,89.68
2019-05-25T07:04:03.721Z,89.25
2019-05-25T07:05:03.726Z,89.06
2019-05-25T07:06:03.711Z,89.54
2019-05-25T07:07:03.723Z,87.9
2019-05-25T07:08:03.872Z,87.9
2019-05-25T07:09:03.694Z,87.6
2019-05-25T07:10:03.864Z,86.55
2019-05-25T07:11:03.825Z,87.32
2019-05-25T07:12:03.729Z,85.68
2019-05-25T07:13:03.699Z,84.14
2019-05-25T07:14:03.712Z,85.58
2019-05-25T07:15:03.713Z,85.68
2019-05-25T07:16:03.698Z,85.3
2019-05-25T07:17:03.791Z,85.53
2019-05-25T07:18:03.711Z,83.89
2019-05-25T07:19:03.759Z,83.85
2019-05-25T07:20:03.808Z,84.05
2019-05-25T07:21:03.810Z,83.81
2019-05-25T07:22:03.920Z,84.87
2019-05-25T07:23:03.787Z,85.44
2019-05-25T07:24:04.886Z,85.64
2019-05-25T07:25:03.754Z,84.81
2019-05-25T07:26:03.746Z,85.1
2019-05-25T07:27:03.762Z,85.87
2019-05-25T07:28:03.774Z,85.35
2019-05-25T07:29:03.763Z,85.1
2019-05-25T07:30:03.750Z,86.16
2019-05-25T07:31:03.751Z,86.07
2019-05-25T07:32:03.744Z,86.07
2019-05-25T07:33:03.838Z,86.07
2019-05-25T07:34:03.748Z,87.8
2019-05-25T07:35:03.733Z,88.28
2019-05-25T07:36:07.441Z,88.67
2019-05-25T07:37:03.774Z,89.01
2019-05-25T07:38:03.957Z,89.83
2019-05-25T07:39:03.931Z,89.39
2019-05-25T07:40:03.776Z,88.28
2019-05-25T07:41:03.795Z,87.32
2019-05-25T07:42:04.015Z,86.83
2019-05-25T07:43:03.765Z,86.98
2019-05-25T07:44:03.839Z,88.04
2019-05-25T07:45:03.870Z,86.69
2019-05-25T07:46:03.827Z,86.78
2019-05-25T07:47:03.819Z,87.74
2019-05-25T07:48:03.760Z,86.98
2019-05-25T07:49:03.767Z,87.12
2019-05-25T07:50:03.794Z,87.41
2019-05-25T07:51:04.556Z,87.8
2019-05-25T07:52:05.516Z,87.8
2019-05-25T07:53:03.779Z,89.34
2019-05-25T07:54:13.580Z,89.92
2019-05-25T07:55:03.920Z,89.92
2019-05-25T07:56:03.795Z,89.34
2019-05-25T07:57:03.829Z,89.43
2019-05-25T07:58:19.544Z,90.97
2019-05-25T07:59:03.780Z,90.88
2019-05-25T08:00:03.851Z,90.4
2019-05-25T08:01:03.794Z,91.07
2019-05-25T08:02:03.799Z,89.82
2019-05-25T08:03:03.791Z,90.83
2019-05-25T08:04:03.878Z,91.75
2019-05-25T08:05:03.864Z,90.78
2019-05-25T08:06:03.906Z,90.59
2019-05-25T08:07:03.808Z,90.88
2019-05-25T08:08:04.836Z,90.97
2019-05-25T08:09:03.845Z,90.78
2019-05-25T08:10:03.911Z,90.97
2019-05-25T08:11:03.882Z,90.97
2019-05-25T08:12:03.828Z,90.97
2019-05-25T08:13:03.874Z,90.3
2019-05-25T08:14:03.860Z,90.59
2019-05-25T08:15:03.845Z,90.69
2019-05-25T08:16:03.854Z,90.69
2019-05-25T08:17:03.940Z,91.31
2019-05-25T08:18:03.907Z,90.54
2019-05-25T08:19:03.815Z,90.73
2019-05-25T08:20:03.897Z,90.11
2019-05-25T08:21:04.095Z,89.43
2019-05-25T08:22:03.869Z,89.09
2019-05-25T08:23:03.837Z,89.09
2019-05-25T08:24:13.106Z,89.39
2019-05-25T08:25:03.869Z,89.39
2019-05-25T08:26:03.883Z,88.75
2019-05-25T08:27:03.883Z,90.1
2019-05-25T08:28:03.848Z,89.09
2019-05-25T08:29:03.874Z,88.65
2019-05-25T08:30:03.969Z,88.46
2019-05-25T08:31:04.360Z,88.17
2019-05-25T08:32:03.839Z,88.04
2019-05-25T08:33:03.877Z,88.81
2019-05-25T08:34:03.886Z,88.23
2019-05-25T08:35:03.892Z,87.94
2019-05-25T08:36:03.879Z,88.42
2019-05-25T08:37:03.864Z,89.24
2019-05-25T08:38:03.872Z,88.81
2019-05-25T08:39:03.916Z,88.9
2019-05-25T08:40:03.856Z,88.71
2019-05-25T08:41:03.877Z,87.98
2019-05-25T08:42:04.270Z,88.61
2019-05-25T08:43:03.918Z,88.65
2019-05-25T08:44:07.152Z,87.7
2019-05-25T08:45:04.022Z,86.92
2019-05-25T08:46:03.892Z,87.5
2019-05-25T08:47:03.872Z,86.58
2019-05-25T08:48:03.884Z,86.19
2019-05-25T08:49:03.881Z,86.14
2019-05-25T08:50:03.989Z,86.96
2019-05-25T08:51:03.925Z,86.28
2019-05-25T08:52:06.838Z,86.18
2019-05-25T08:53:03.931Z,85.6
2019-05-25T08:54:16.928Z,85.08
2019-05-25T08:55:04.212Z,84
2019-05-25T08:56:03.916Z,84
2019-05-25T08:57:03.927Z,83.27
2019-05-25T08:58:03.918Z,81.92
2019-05-25T08:59:04.061Z,82.83
2019-05-25T09:00:03.889Z,81.67
2019-05-25T09:01:03.910Z,80.71
2019-05-25T09:02:03.944Z,80.74
2019-05-25T09:03:03.927Z,80.9
2019-05-25T09:04:03.970Z,79.7
2019-05-25T09:05:03.936Z,79.83
2019-05-25T09:06:03.922Z,80.16
2019-05-25T09:07:03.938Z,80.74
2019-05-25T09:08:03.915Z,80.57
2019-05-25T09:09:03.931Z,79.58
2019-05-25T09:10:03.908Z,78.81
2019-05-25T09:11:03.936Z,77.94
2019-05-25T09:12:05.113Z,76.82
2019-05-25T09:13:03.911Z,76.55
2019-05-25T09:14:03.915Z,75.62
2019-05-25T09:15:05.943Z,75.04
2019-05-25T09:16:03.917Z,74.21
2019-05-25T09:17:03.939Z,75.6
2019-05-25T09:18:03.942Z,75.11
2019-05-25T09:19:03.907Z,73.27
2019-05-25T09:20:03.975Z,73.27
2019-05-25T09:21:03.930Z,73.18
2019-05-25T09:22:06.407Z,72.27
2019-05-25T09:23:04.020Z,73.39
2019-05-25T09:24:15.975Z,74.36
2019-05-25T09:25:03.989Z,74.15
2019-05-25T09:26:03.961Z,73.85
2019-05-25T09:27:03.982Z,73.31
2019-05-25T09:28:03.946Z,74.47
2019-05-25T09:29:07.441Z,73.69
2019-05-25T09:30:03.946Z,73.73
2019-05-25T09:31:03.987Z,74.82
2019-05-25T09:32:06.947Z,74.57
2019-05-25T09:33:04.026Z,73.93
2019-05-25T09:34:03.984Z,74.57
2019-05-25T09:35:03.957Z,72.57
2019-05-25T09:36:03.966Z,71.18
2019-05-25T09:37:03.989Z,71.89
2019-05-25T09:38:04.074Z,72.5
2019-05-25T09:39:04.059Z,72.73
2019-05-25T09:40:03.968Z,72.63
2019-05-25T09:41:03.958Z,73.99
2019-05-25T09:42:04.323Z,72.89
2019-05-25T09:43:04.012Z,72.09
2019-05-25T09:44:03.975Z,73.25
2019-05-25T09:45:04.006Z,71.8
2019-05-25T09:46:05.994Z,72.18
2019-05-25T09:47:04.009Z,72.57
2019-05-25T09:48:04.015Z,71.99
2019-05-25T09:49:03.981Z,71.19
2019-05-25T09:50:04.315Z,71.86
2019-05-25T09:51:04.010Z,71.83
2019-05-25T09:52:04.002Z,70.96
2019-05-25T09:53:04.012Z,70.51
2019-05-25T09:54:04.032Z,71.9
2019-05-25T09:55:04.168Z,70.9
2019-05-25T09:56:04.057Z,69.57
2019-05-25T09:57:04.199Z,70.7
2019-05-25T09:58:04.030Z,70.67
2019-05-25T09:59:17.600Z,70.67
2019-05-25T10:00:04.061Z,71.02
2019-05-25T10:01:04.017Z,70.47
2019-05-25T10:02:04.009Z,70.92
2019-05-25T10:03:04.056Z,71.86
2019-05-25T10:04:04.002Z,70.54
2019-05-25T10:05:04.054Z,69.76
2019-05-25T10:06:14.755Z,70.28
2019-05-25T10:07:04.041Z,69.67
2019-05-25T10:08:04.039Z,69.86
2019-05-25T10:09:04.138Z,70.67
2019-05-25T10:10:04.073Z,71.06
2019-05-25T10:11:04.031Z,70.31
2019-05-25T10:12:04.054Z,70.67
2019-05-25T10:13:04.023Z,70.9
2019-05-25T10:14:04.109Z,70.15
2019-05-25T10:15:04.077Z,69.28
2019-05-25T10:16:04.053Z,69.28
2019-05-25T10:17:04.030Z,68.4
2019-05-25T10:18:04.069Z,68.28
2019-05-25T10:19:04.073Z,68.66
2019-05-25T10:20:04.075Z,68.41
2019-05-25T10:21:04.121Z,68.99
2019-05-25T10:22:04.069Z,69.89
2019-05-25T10:23:04.093Z,69.76
2019-05-25T10:24:04.099Z,70.54
2019-05-25T10:25:04.127Z,70.44
2019-05-25T10:26:04.167Z,71.5
2019-05-25T10:27:04.159Z,71.99
2019-05-25T10:28:04.247Z,72.22
2019-05-25T10:29:04.251Z,71.34
2019-05-25T10:30:04.223Z,70.96
2019-05-25T10:31:04.268Z,71.31
2019-05-25T10:32:04.166Z,70.47
2019-05-25T10:33:04.222Z,70.09
2019-05-25T10:34:04.450Z,69.41
2019-05-25T10:35:04.258Z,69.41
2019-05-25T10:36:04.173Z,70.57
2019-05-25T10:37:04.232Z,70.15
2019-05-25T10:38:04.279Z,70
2019-05-25T10:39:04.215Z,70.54
2019-05-25T10:40:04.225Z,70.19
2019-05-25T10:41:04.131Z,70.12
2019-05-25T10:42:04.121Z,68.66
2019-05-25T10:43:04.181Z,68.7
2019-05-25T10:44:04.144Z,67.76
2019-05-25T10:45:04.327Z,67.83
2019-05-25T10:46:04.146Z,66.37
2019-05-25T10:47:04.514Z,66.37
2019-05-25T10:48:04.108Z,66.34
2019-05-25T10:49:04.378Z,65.75
2019-05-25T10:50:04.257Z,68.15
2019-05-25T10:51:04.201Z,66.76
2019-05-25T10:52:04.221Z,66.44
2019-05-25T10:53:04.213Z,67.57
2019-05-25T10:54:04.110Z,68.99
2019-05-25T10:55:04.360Z,69.12
2019-05-25T10:56:04.110Z,68.66
2019-05-25T10:57:04.143Z,67.73
2019-05-25T10:59:22.734Z,66.95
2019-05-25T11:00:22.718Z,66.5
2019-05-25T11:01:22.782Z,66.72
2019-05-25T11:02:22.727Z,66.47
2019-05-25T11:03:22.797Z,66.86
2019-05-25T11:04:22.708Z,68.18
2019-05-25T11:05:22.860Z,66.82
2019-05-25T11:06:22.742Z,66.44
2019-05-25T11:07:22.747Z,66.37
2019-05-25T11:08:22.759Z,65.79
2019-05-25T11:09:22.783Z,65.75
2019-05-25T11:10:22.740Z,66.05
2019-05-25T11:11:22.695Z,66.27
2019-05-25T11:12:25.847Z,66.27
2019-05-25T11:13:22.721Z,66.34
2019-05-25T11:14:22.709Z,65.08
2019-05-25T11:15:22.711Z,66.44
2019-05-25T11:16:22.724Z,65.27
2019-05-25T11:17:22.735Z,65.43
2019-05-25T11:18:22.781Z,64.14
2019-05-25T11:19:24.257Z,64.43
2019-05-25T11:20:22.724Z,64.92
2019-05-25T11:21:22.723Z,64.04
2019-05-25T11:22:22.707Z,65.11
2019-05-25T11:23:22.728Z,64.43
2019-05-25T11:24:32.217Z,63.75
2019-05-25T11:25:22.761Z,64.43
2019-05-25T11:26:22.763Z,64.95
2019-05-25T11:27:22.712Z,64.07
2019-05-25T11:28:22.964Z,63.88
2019-05-25T11:29:22.808Z,64.07
2019-05-25T11:30:22.741Z,64.07
2019-05-25T11:31:22.732Z,63.53
2019-05-25T11:32:22.737Z,64.2
2019-05-25T11:33:22.749Z,65.4
2019-05-25T11:34:22.755Z,65.4
2019-05-25T11:35:22.861Z,65.3
2019-05-25T11:36:22.778Z,66.17
2019-05-25T11:37:22.730Z,67.11
2019-05-25T11:38:22.962Z,65.85
2019-05-25T11:39:22.766Z,65.79
2019-05-25T11:40:22.738Z,65.24
2019-05-25T11:41:22.760Z,65.3
2019-05-25T11:42:22.765Z,66.05
2019-05-25T11:43:22.773Z,65.08
2019-05-25T11:44:22.766Z,66.34
2019-05-25T11:45:22.746Z,66.24
2019-05-25T11:46:22.792Z,66.17
2019-05-25T11:47:22.787Z,66.14
2019-05-25T11:48:22.787Z,65.75
2019-05-25T11:49:25.580Z,67.76
2019-05-25T11:50:22.777Z,67.89
2019-05-25T11:51:22.763Z,66.37
2019-05-25T11:52:22.762Z,66.34
2019-05-25T11:53:22.777Z,66.99
2019-05-25T11:54:33.931Z,65.17
2019-05-25T11:55:22.797Z,63.98
2019-05-25T11:56:22.887Z,63.88
2019-05-25T11:57:22.796Z,64.56
2019-05-25T11:58:22.794Z,66.37
2019-05-25T11:59:22.758Z,66.2
2019-05-25T12:00:28.298Z,66.92
2019-05-25T12:01:22.817Z,67.05
2019-05-25T12:02:22.825Z,65.3
2019-05-25T12:03:22.825Z,64.07
2019-05-25T12:04:22.846Z,63.01
2019-05-25T12:05:22.802Z,63.2
2019-05-25T12:06:22.862Z,64.59
2019-05-25T12:07:22.850Z,64.4
2019-05-25T12:08:22.859Z,64.33
2019-05-25T12:09:22.834Z,63.26
2019-05-25T12:10:22.866Z,63.46
2019-05-25T12:11:22.817Z,64.3
2019-05-25T12:12:22.826Z,63.04
2019-05-25T12:13:22.960Z,62.78
2019-05-25T12:14:22.803Z,61.22
2019-05-25T12:15:22.864Z,62.39
2019-05-25T12:16:22.830Z,61.19
2019-05-25T12:17:22.816Z,61.04
2019-05-25T12:18:22.947Z,61.91
2019-05-25T12:19:22.842Z,60.64
2019-05-25T12:20:22.815Z,59.77
2019-05-25T12:21:22.850Z,60.32
2019-05-25T12:22:22.828Z,61.04
2019-05-25T12:23:22.822Z,61.32
2019-05-25T12:25:25.352Z,62.46
2019-05-25T12:26:25.664Z,63.3
2019-05-25T12:27:25.637Z,61.68
2019-05-25T12:28:25.677Z,62.79
2019-05-25T12:29:25.796Z,62.13
2019-05-25T12:30:39.599Z,62.13
2019-05-25T12:31:25.459Z,63.49
2019-05-25T12:32:25.441Z,63.72
2019-05-25T12:33:29.375Z,63.56
2019-05-25T12:34:57.054Z,63.17
2019-05-25T12:35:25.630Z,62.29
2019-05-25T12:36:25.486Z,61.71
2019-05-25T12:37:25.432Z,62.59
2019-05-25T12:38:25.541Z,63.07
2019-05-25T12:39:26.669Z,63.46
2019-05-25T12:40:25.566Z,61.71
2019-05-25T12:41:25.561Z,59.77
2019-05-25T12:42:25.517Z,61.07
2019-05-25T12:43:25.566Z,61.74
2019-05-25T12:44:25.340Z,59.87
2019-05-25T12:45:26.616Z,59.87
2019-05-25T12:46:25.418Z,60.25
2019-05-25T12:47:25.359Z,59.58
2019-05-25T12:48:25.613Z,59.58
2019-05-25T12:49:25.723Z,59.09
2019-05-25T12:50:25.601Z,58.97
2019-05-25T12:51:25.633Z,61.52
2019-05-25T12:52:25.559Z,61.32
2019-05-25T12:53:25.706Z,60.77
2019-05-25T12:54:25.547Z,61.1
2019-05-25T12:55:25.572Z,61.61
2019-05-25T12:56:25.617Z,61.22
2019-05-25T12:57:28.213Z,59.61
2019-05-25T12:58:27.864Z,59.28
2019-05-25T12:59:25.569Z,61.04
2019-05-25T13:00:25.571Z,59.87
2019-05-25T13:01:25.623Z,60.1
2019-05-25T13:02:25.614Z,61.17
2019-05-25T13:03:28.294Z,60
2019-05-25T13:04:25.710Z,60.32
2019-05-25T13:05:38.299Z,61.07
2019-05-25T13:06:25.525Z,61.1
2019-05-25T13:07:25.411Z,60.61
2019-05-25T13:08:26.190Z,62.23
2019-05-25T13:09:25.552Z,61.46
2019-05-25T13:10:25.539Z,61.07
2019-05-25T13:11:25.788Z,61.17
2019-05-25T13:12:25.698Z,63.04
2019-05-25T13:13:26.170Z,61.36